Time;durP1;ratioP1;P1;durP2;ratioP2;P2;SDS_P1;SDS_P2;PMS_P1;PMS_P2;Temp;Humidity;BMP_temperature;BMP_pressure;BME280_temperature;BME280_humidity;BME280_pressure;Samples;Min_cycle;Max_cycle;Signal;HPM_P1;HPM_P2
2021/10/06 00:02:05;;;;;;;;;1.00;1.00;;;;;24.17;43.29;101383.06;5074852;28;45623;-67
2021/10/06 00:04:30;;;;;;;;;1.25;1.25;;;;;24.13;43.57;101384.44;5075023;28;45436;-67
2021/10/06 00:06:55;;;;;;;;;1.00;1.00;;;;;24.15;43.68;101377.09;5074924;28;45380;-67
2021/10/06 00:09:21;;;;;;;;;1.00;1.00;;;;;24.14;43.39;101388.75;5075653;28;45284;-68
2021/10/06 00:11:46;;;;;;;;;2.25;1.25;;;;;24.14;43.32;101386.09;5075875;28;45201;-67
2021/10/06 00:14:13;;;;;;;;;3.00;1.00;;;;;24.14;43.68;101380.78;5074990;28;45601;-66
2021/10/06 00:16:38;;;;;;;;;3.33;1.67;;;;;24.14;43.09;101388.75;5074725;28;46996;-67
2021/10/06 00:19:06;;;;;;;;;1.00;1.00;;;;;24.12;43.46;101386.28;5074596;28;45458;-67
2021/10/06 00:21:31;;;;;;;;;1.00;1.00;;;;;24.13;43.35;101389.75;5075115;28;45766;-67
2021/10/06 00:23:57;;;;;;;;;1.33;1.00;;;;;24.12;43.26;101393.44;5076296;28;45491;-66
2021/10/06 00:26:22;;;;;;;;;0.67;0.67;;;;;24.09;43.42;101383.16;5074555;28;46378;-67
2021/10/06 00:28:47;;;;;;;;;3.00;1.00;;;;;24.09;42.97;101389.28;5074656;28;45422;-67
2021/10/06 00:31:13;;;;;;;;;2.50;2.00;;;;;24.11;43.57;101400.56;5056579;28;45436;-67
2021/10/06 00:33:38;;;;;;;;;0.67;0.67;;;;;24.12;43.32;101396.09;5074815;28;45332;-67
2021/10/06 00:36:04;;;;;;;;;3.00;2.00;;;;;24.12;43.09;101407.56;5076537;28;45367;-67
2021/10/06 00:38:29;;;;;;;;;5.00;0.67;;;;;24.11;42.95;101416.53;5072348;28;45532;-67
2021/10/06 00:40:55;;;;;;;;;0.50;0.50;;;;;24.12;42.81;101420.84;5073339;28;45460;-67
2021/10/06 00:43:21;;;;;;;;;2.00;2.00;;;;;24.11;42.65;101426.31;5074530;28;45605;-67
2021/10/06 00:45:48;;;;;;;;;3.00;2.00;;;;;24.11;42.93;101431.63;5056350;28;47640;-67
2021/10/06 00:48:13;;;;;;;;;1.67;1.67;;;;;24.12;43.34;101442.09;5075824;28;45415;-67
2021/10/06 00:50:39;;;;;;;;;1.00;1.00;;;;;24.12;43.14;101444.78;5074687;28;45257;-67
2021/10/06 00:53:05;;;;;;;;;0.50;0.50;;;;;24.12;42.95;101449.25;5074001;28;45347;-67
2021/10/06 00:55:31;;;;;;;;;1.00;1.00;;;;;24.12;42.80;101449.25;5074287;28;46174;-66
2021/10/06 00:57:56;;;;;;;;;0.00;0.00;;;;;24.12;43.10;101451.91;5074360;28;45321;-67
2021/10/06 01:00:21;;;;;;;;;0.75;0.75;;;;;24.04;43.02;101437.69;5071581;28;45394;-67
2021/10/06 01:02:47;;;;;;;;;1.00;1.00;;;;;24.11;42.70;101452.91;5073753;28;45533;-67
2021/10/06 01:05:12;;;;;;;;;0.33;0.33;;;;;24.11;43.30;101453.75;5073086;28;47490;-67
2021/10/06 01:07:38;;;;;;;;;1.67;1.33;;;;;24.10;42.85;101452.06;5056758;28;45391;-67
2021/10/06 01:10:07;;;;;;;;;1.00;0.00;;;;;24.05;43.33;101452.63;5072738;28;45412;-67
2021/10/06 01:12:33;;;;;;;;;0.67;0.67;;;;;24.10;43.03;101452.06;5074171;28;49105;-67
2021/10/06 01:15:00;;;;;;;;;1.00;1.00;;;;;24.10;42.85;101460.03;5075695;28;45434;-67
2021/10/06 01:17:25;;;;;;;;;0.00;0.00;;;;;24.09;42.61;101461.06;5071731;28;45321;-67
2021/10/06 01:19:50;;;;;;;;;2.67;1.00;;;;;24.09;42.94;101454.91;5073723;28;45596;-67
2021/10/06 01:22:16;;;;;;;;;1.00;1.00;;;;;24.07;42.57;101453.25;5073726;28;45478;-67
2021/10/06 01:24:41;;;;;;;;;0.00;0.00;;;;;24.08;42.75;101451.44;5073843;28;47260;-67
2021/10/06 01:27:07;;;;;;;;;0.00;0.00;;;;;24.07;42.85;101450.59;5075826;28;45477;-66
2021/10/06 01:29:33;;;;;;;;;1.00;1.00;;;;;24.07;42.99;101453.25;5073786;28;45426;-67
2021/10/06 01:31:59;;;;;;;;;1.00;0.50;;;;;24.05;42.65;101457.94;5073864;28;45446;-67
2021/10/06 01:34:25;;;;;;;;;1.00;1.00;;;;;24.07;43.06;101457.78;5073565;28;45513;-67
2021/10/06 01:36:53;;;;;;;;;0.00;0.00;;;;;24.06;42.58;101459.59;5073427;28;45274;-67
2021/10/06 01:39:20;;;;;;;;;1.00;1.00;;;;;24.05;43.29;101460.59;5075181;28;45460;-67
2021/10/06 01:41:47;;;;;;;;;0.67;0.00;;;;;24.02;42.84;101460.13;5074405;28;45306;-67
2021/10/06 01:44:18;;;;;;;;;0.67;0.67;;;;;24.05;43.17;101462.41;5073371;28;46982;-66
2021/10/06 01:46:44;;;;;;;;;1.67;1.67;;;;;24.05;42.90;101465.91;5073233;28;45759;-67
2021/10/06 01:49:09;;;;;;;;;0.00;0.00;;;;;24.04;43.16;101461.63;5072140;28;45705;-67
2021/10/06 01:51:36;;;;;;;;;1.50;1.00;;;;;24.04;42.51;101458.97;5073380;28;45378;-67
2021/10/06 01:54:03;;;;;;;;;1.00;1.00;;;;;24.04;42.71;101466.94;5078638;28;47388;-67
2021/10/06 01:56:29;;;;;;;;;0.00;0.00;;;;;24.00;42.49;101459.47;5075546;28;45458;-67
2021/10/06 01:58:55;;;;;;;;;0.67;0.33;;;;;24.05;42.99;101462.41;5075403;28;45347;-67
2021/10/06 02:01:20;;;;;;;;;1.00;0.33;;;;;24.04;42.96;101458.13;5077052;28;45446;-67
2021/10/06 02:03:45;;;;;;;;;2.00;0.67;;;;;24.05;42.81;101465.91;5077012;28;46392;-67
2021/10/06 02:06:12;;;;;;;;;2.67;1.00;;;;;24.03;42.95;101465.25;5078719;28;45340;-67
2021/10/06 02:08:37;;;;;;;;;2.00;0.00;;;;;23.96;43.17;101451.03;5076999;28;45512;-67
2021/10/06 02:11:03;;;;;;;;;1.33;1.00;;;;;24.04;42.72;101472.25;5076735;28;45401;-67
2021/10/06 02:13:29;;;;;;;;;1.00;1.00;;;;;24.04;42.94;101469.59;5076715;28;46054;-67
2021/10/06 02:15:54;;;;;;;;;0.33;0.33;;;;;24.04;42.55;101480.22;5076914;28;45369;-67
2021/10/06 02:18:19;;;;;;;;;0.00;0.00;;;;;24.04;42.52;101485.53;5078438;28;45386;-67
2021/10/06 02:20:45;;;;;;;;;2.67;1.00;;;;;24.04;42.39;101487.38;5077289;28;45357;-67
2021/10/06 02:23:11;;;;;;;;;1.00;1.00;;;;;23.98;42.53;101488.06;5076426;28;46860;-67
2021/10/06 02:25:36;;;;;;;;;2.00;1.00;;;;;24.02;42.57;101497.34;5072352;27;45377;-67
2021/10/06 02:28:03;;;;;;;;;1.00;1.00;;;;;24.03;42.42;101489.19;5075139;28;45329;-67
2021/10/06 02:30:28;;;;;;;;;0.00;0.00;;;;;24.03;42.48;101485.69;5076829;28;45383;-67
2021/10/06 02:32:53;;;;;;;;;1.00;1.00;;;;;24.03;42.66;101491.00;5078214;28;46078;-67
2021/10/06 02:35:19;;;;;;;;;0.33;0.33;;;;;24.03;42.52;101491.84;5074643;28;45423;-68
2021/10/06 02:37:44;;;;;;;;;1.00;1.00;;;;;24.02;42.38;101490.19;5076300;28;45622;-67
2021/10/06 02:40:13;;;;;;;;;1.00;1.00;;;;;24.01;42.98;101493.88;5076744;28;45427;-67
2021/10/06 02:42:39;;;;;;;;;5.00;1.00;;;;;24.02;42.74;101494.69;5076558;28;46312;-67
2021/10/06 02:45:07;;;;;;;;;0.33;0.33;;;;;24.02;43.08;101502.66;5078140;28;45482;-67
2021/10/06 02:47:32;;;;;;;;;3.33;1.00;;;;;23.92;42.65;101482.44;5076341;28;45478;-67
2021/10/06 02:49:58;;;;;;;;;1.00;1.00;;;;;24.02;42.73;101495.50;5075846;28;45458;-67
2021/10/06 02:52:23;;;;;;;;;2.00;0.00;;;;;24.00;42.99;101496.69;5076043;28;46629;-66
2021/10/06 02:54:49;;;;;;;;;1.67;0.00;;;;;23.94;42.76;101490.25;5076339;28;45452;-67
2021/10/06 02:57:14;;;;;;;;;0.00;0.00;;;;;23.90;42.63;101480.97;5077847;28;45424;-67
2021/10/06 02:59:39;;;;;;;;;0.00;0.00;;;;;24.01;42.68;101511.63;5076537;28;47786;-67
2021/10/06 03:02:05;;;;;;;;;0.67;0.67;;;;;24.01;42.89;101501.00;5075570;28;57247;-67
2021/10/06 03:04:30;;;;;;;;;0.00;0.00;;;;;23.93;42.49;101499.22;5074592;28;45304;-67
2021/10/06 03:06:57;;;;;;;;;1.00;1.00;;;;;23.94;42.57;101498.25;5074399;28;45492;-67
2021/10/06 03:09:23;;;;;;;;;1.00;1.00;;;;;23.90;42.57;101488.94;5058362;28;45555;-67
2021/10/06 03:11:48;;;;;;;;;1.00;1.00;;;;;23.97;42.74;101508.50;5077023;28;46626;-67
2021/10/06 03:14:13;;;;;;;;;1.67;1.00;;;;;23.99;42.85;101503.03;5074098;28;45497;-67
2021/10/06 03:16:39;;;;;;;;;1.00;1.00;;;;;23.99;42.42;101509.16;5075836;28;45435;-67
2021/10/06 03:19:04;;;;;;;;;3.00;2.00;;;;;23.99;42.81;101516.31;5075354;28;45531;-67
2021/10/06 03:21:29;;;;;;;;;3.00;0.67;;;;;23.99;42.43;101511.00;5075954;28;45827;-67
2021/10/06 03:23:55;;;;;;;;;1.00;1.00;;;;;23.98;42.12;101514.63;5077449;28;45416;-65
2021/10/06 03:26:21;;;;;;;;;2.67;2.00;;;;;23.92;42.20;101500.22;5075768;28;45533;-67
2021/10/06 03:28:46;;;;;;;;;0.00;0.00;;;;;23.99;42.29;101518.97;5075553;28;45563;-66
2021/10/06 03:31:11;;;;;;;;;0.00;0.00;;;;;23.94;42.21;101511.53;5075597;28;46289;-66
2021/10/06 03:33:37;;;;;;;;;0.67;0.67;;;;;24.00;42.37;101520.59;5075307;28;45290;-67
2021/10/06 03:36:03;;;;;;;;;1.00;1.00;;;;;24.00;42.32;101531.22;5077524;28;45182;-66
2021/10/06 03:38:29;;;;;;;;;0.00;0.00;;;;;24.00;42.13;101533.88;5075347;28;45404;-66
2021/10/06 03:40:55;;;;;;;;;0.00;0.00;;;;;23.94;42.54;101527.47;5075167;28;46150;-66
2021/10/06 03:43:20;;;;;;;;;0.33;0.33;;;;;23.99;42.55;101537.56;5075348;28;45472;-66
2021/10/06 03:45:45;;;;;;;;;1.00;1.00;;;;;23.99;42.42;101546.38;5073983;28;45394;-66
2021/10/06 03:48:11;;;;;;;;;0.33;0.33;;;;;23.99;42.17;101549.03;5077067;28;45311;-66
2021/10/06 03:50:36;;;;;;;;;1.00;1.00;;;;;23.98;42.55;101547.38;5074914;28;45435;-66
2021/10/06 03:53:03;;;;;;;;;1.33;0.00;;;;;23.88;42.52;101538.78;5067649;28;45360;-67
2021/10/06 03:55:29;;;;;;;;;0.00;0.00;;;;;23.97;42.53;101561.66;5075362;28;45448;-66
2021/10/06 03:57:54;;;;;;;;;0.00;0.00;;;;;23.98;42.39;101562.47;5075325;28;45770;-66
2021/10/06 04:00:20;;;;;;;;;0.67;0.67;;;;;23.98;42.32;101565.13;5076143;28;45446;-66
2021/10/06 04:02:45;;;;;;;;;1.00;0.00;;;;;23.88;42.34;101554.75;5075345;28;45435;-67
2021/10/06 04:05:11;;;;;;;;;1.00;1.00;;;;;23.96;42.52;101571.47;5075210;28;45588;-67
2021/10/06 04:07:37;;;;;;;;;1.00;0.00;;;;;23.92;42.19;101561.34;5055049;28;45387;-66
2021/10/06 04:10:04;;;;;;;;;3.00;0.00;;;;;23.96;42.40;101565.31;5075205;28;45343;-66
2021/10/06 04:12:30;;;;;;;;;0.00;0.00;;;;;23.95;42.30;101569.81;5075003;28;45470;-66
2021/10/06 04:14:55;;;;;;;;;1.33;0.33;;;;;23.95;42.24;101571.63;5076472;28;45454;-66
2021/10/06 04:17:20;;;;;;;;;0.00;0.00;;;;;23.84;42.57;101551.59;5074774;28;45492;-66
2021/10/06 04:19:46;;;;;;;;;0.00;0.00;;;;;23.92;42.22;101564.00;5074626;28;45411;-67
2021/10/06 04:22:11;;;;;;;;;1.00;1.00;;;;;23.84;42.35;101562.22;5074819;28;45366;-67
2021/10/06 04:24:37;;;;;;;;;0.67;0.67;;;;;23.94;42.58;101577.97;5074410;28;45693;-67
2021/10/06 04:27:02;;;;;;;;;0.00;0.00;;;;;23.94;42.72;101585.94;5075627;28;45503;-66
2021/10/06 04:29:27;;;;;;;;;2.00;0.33;;;;;23.92;42.55;101579.94;5074417;28;45958;-66
2021/10/06 04:31:53;;;;;;;;;0.00;0.00;;;;;23.93;42.35;101590.44;5072673;28;45406;-66
2021/10/06 04:34:18;;;;;;;;;1.00;1.00;;;;;23.85;42.36;101582.50;5074598;28;45388;-67
2021/10/06 04:36:44;;;;;;;;;0.00;0.00;;;;;23.94;42.01;101602.69;5075023;28;45372;-67
2021/10/06 04:39:09;;;;;;;;;0.00;0.00;;;;;23.91;42.20;101597.75;5071726;28;46036;-66
2021/10/06 04:41:34;;;;;;;;;3.00;0.00;;;;;23.93;42.00;101601.06;5074282;27;45383;-66
2021/10/06 04:44:01;;;;;;;;;0.67;0.67;;;;;23.93;42.59;101613.50;5074676;28;45439;-67
2021/10/06 04:46:28;;;;;;;;;0.00;0.00;;;;;23.94;42.57;101607.19;5074257;28;45470;-66
2021/10/06 04:48:53;;;;;;;;;1.00;1.00;;;;;23.91;42.47;101611.03;5074219;28;48100;-66
2021/10/06 04:51:18;;;;;;;;;1.00;0.33;;;;;23.92;41.91;101614.50;5075741;28;45286;-67
2021/10/06 04:53:44;;;;;;;;;0.00;0.00;;;;;23.90;41.87;101608.53;5074824;28;45588;-67
2021/10/06 04:56:09;;;;;;;;;0.00;0.00;;;;;23.94;42.55;101613.31;5074283;28;45280;-66
2021/10/06 04:58:34;;;;;;;;;0.00;0.00;;;;;23.89;42.23;101612.22;5074068;28;46796;-66
2021/10/06 05:01:00;;;;;;;;;0.00;0.00;;;;;23.87;42.25;101612.38;5073651;28;45299;-66
2021/10/06 05:03:25;;;;;;;;;0.67;0.00;;;;;23.93;42.65;101624.97;5075298;28;45273;-67
2021/10/06 05:05:50;;;;;;;;;0.00;0.00;;;;;23.94;42.11;101633.78;5073923;28;45201;-67
2021/10/06 05:08:15;;;;;;;;;0.00;0.00;;;;;23.94;42.02;101628.47;5073939;28;45382;-66
2021/10/06 05:10:41;;;;;;;;;0.00;0.00;;;;;23.84;42.25;101613.53;5072366;28;45376;-66
2021/10/06 05:13:07;;;;;;;;;0.00;0.00;;;;;23.93;42.02;101634.78;5074167;28;45289;-67
2021/10/06 05:15:32;;;;;;;;;0.33;0.33;;;;;23.92;42.27;101633.94;5073874;28;45488;-66
2021/10/06 05:17:58;;;;;;;;;0.00;0.00;;;;;23.94;42.24;101639.09;5075772;28;46256;-67
2021/10/06 05:20:23;;;;;;;;;0.00;0.00;;;;;23.92;42.08;101639.25;5073698;28;45424;-66
2021/10/06 05:22:49;;;;;;;;;0.00;0.00;;;;;23.93;41.97;101632.13;5073996;28;45371;-67
2021/10/06 05:25:14;;;;;;;;;0.00;0.00;;;;;23.92;41.96;101635.75;5056967;28;45581;-67
2021/10/06 05:27:39;;;;;;;;;1.00;1.00;;;;;23.85;41.85;101625.84;5073040;28;46405;-67
2021/10/06 05:30:08;;;;;;;;;0.00;0.00;;;;;23.88;42.07;101640.63;5075334;28;45392;-67
2021/10/06 05:32:35;;;;;;;;;0.00;0.00;;;;;23.82;42.12;101634.16;5073780;28;45360;-66
2021/10/06 05:35:01;;;;;;;;;1.33;0.33;;;;;23.90;42.35;101645.75;5073539;28;45528;-67
2021/10/06 05:37:27;;;;;;;;;1.00;1.00;;;;;23.90;42.00;101656.38;5073482;28;46239;-67
2021/10/06 05:39:52;;;;;;;;;0.00;0.00;;;;;23.89;42.31;101658.19;5073074;28;45416;-67
2021/10/06 05:42:18;;;;;;;;;0.67;0.00;;;;;23.89;42.42;101658.19;5075224;28;45321;-67
2021/10/06 05:44:43;;;;;;;;;0.67;0.67;;;;;23.82;42.42;101654.56;5072465;28;45388;-66
2021/10/06 05:47:08;;;;;;;;;1.00;1.00;;;;;23.90;42.36;101664.34;5073397;28;46149;-67
2021/10/06 05:49:34;;;;;;;;;1.00;0.00;;;;;23.89;42.05;101666.16;5071718;28;45320;-67
2021/10/06 05:51:59;;;;;;;;;1.00;1.00;;;;;23.89;42.53;101668.03;5055379;28;45395;-67
2021/10/06 05:54:24;;;;;;;;;0.33;0.00;;;;;23.89;42.51;101670.69;5074318;28;45450;-66
2021/10/06 05:56:50;;;;;;;;;2.00;0.00;;;;;23.89;42.19;101690.09;5074695;28;46018;-66
2021/10/06 05:59:15;;;;;;;;;1.00;1.00;;;;;23.89;42.08;101679.47;5072911;28;45513;-66
2021/10/06 06:01:40;;;;;;;;;1.33;0.67;;;;;23.89;42.48;101686.63;5073408;27;45471;-66
2021/10/06 06:04:06;;;;;;;;;0.00;0.00;;;;;23.89;42.08;101697.25;5073767;28;45438;-67
2021/10/06 06:06:31;;;;;;;;;0.25;0.00;;;;;23.80;41.97;101686.66;5073326;28;45343;-67
2021/10/06 06:08:57;;;;;;;;;0.33;0.33;;;;;23.89;41.97;101691.94;5075182;28;45391;-68
2021/10/06 06:11:22;;;;;;;;;3.00;1.00;;;;;23.83;41.92;101686.31;5073259;28;45490;-68
2021/10/06 06:13:49;;;;;;;;;0.00;0.00;;;;;23.89;41.81;101695.41;5073065;28;45323;-68
2021/10/06 06:16:14;;;;;;;;;1.67;0.00;;;;;23.89;42.03;101697.25;5073151;28;46195;-68
2021/10/06 06:18:40;;;;;;;;;0.00;0.00;;;;;23.90;42.10;101701.56;5073295;28;45451;-68
2021/10/06 06:21:05;;;;;;;;;0.00;0.00;;;;;23.89;41.98;101698.06;5056048;28;45368;-68
2021/10/06 06:23:32;;;;;;;;;1.00;0.25;;;;;23.90;42.14;101707.69;5071602;28;45384;-68
2021/10/06 06:25:58;;;;;;;;;1.67;0.67;;;;;23.90;41.91;101714.84;5072834;28;46573;-66
2021/10/06 06:28:23;;;;;;;;;0.67;0.67;;;;;23.88;42.38;101724.81;5070976;28;45561;-66
2021/10/06 06:30:48;;;;;;;;;0.33;0.33;;;;;23.90;42.10;101733.44;5072021;28;45402;-67
2021/10/06 06:33:14;;;;;;;;;3.00;0.00;;;;;23.80;42.49;101718.53;5073727;28;45466;-66
2021/10/06 06:35:39;;;;;;;;;0.67;0.67;;;;;23.85;42.50;101736.63;5074481;27;46856;-67
2021/10/06 06:38:05;;;;;;;;;0.50;0.00;;;;;23.90;42.63;101744.91;5071932;28;45795;-66
2021/10/06 06:40:30;;;;;;;;;1.00;1.00;;;;;23.89;42.67;101748.56;5074920;28;45526;-67
2021/10/06 06:42:55;;;;;;;;;0.33;0.33;;;;;23.90;42.88;101752.03;5076199;28;45345;-67
2021/10/06 06:45:21;;;;;;;;;3.00;0.00;;;;;23.91;43.02;101751.06;5076419;28;45486;-67
2021/10/06 06:47:46;;;;;;;;;0.00;0.00;;;;;23.92;43.13;101748.22;5058148;28;45431;-66
2021/10/06 06:50:14;;;;;;;;;2.50;1.00;;;;;23.97;42.84;101750.34;5075508;28;45732;-66
2021/10/06 06:52:40;;;;;;;;;1.00;1.00;;;;;24.00;42.88;101747.38;5075455;28;45342;-66
2021/10/06 06:55:06;;;;;;;;;1.67;0.00;;;;;23.98;42.55;101752.03;5075332;28;45404;-66
2021/10/06 06:57:32;;;;;;;;;2.00;0.00;;;;;24.07;42.76;101761.63;5075895;28;45361;-67
2021/10/06 06:59:57;;;;;;;;;0.00;0.00;;;;;24.02;43.12;101740.03;5074759;28;45443;-67
2021/10/06 07:02:23;;;;;;;;;1.00;1.00;;;;;24.17;42.64;101749.97;5074201;28;45591;-67
2021/10/06 07:04:49;;;;;;;;;3.00;0.00;;;;;24.17;42.69;101753.44;5073493;28;46324;-65
2021/10/06 07:07:15;;;;;;;;;4.00;1.00;;;;;23.96;42.37;101722.97;5070867;28;45437;-65
2021/10/06 07:09:47;;;;;;;;;0.00;0.00;;;;;24.25;42.82;101757.09;5075584;28;45531;-65
2021/10/06 07:12:17;;;;;;;;;0.00;0.00;;;;;24.35;42.47;101779.00;5073922;28;45542;-65
2021/10/06 07:14:44;;;;;;;;;0.33;0.33;;;;;24.39;42.57;101776.81;5076636;28;45340;-65
2021/10/06 07:17:09;;;;;;;;;0.00;0.00;;;;;24.42;42.08;101779.13;5075416;28;45309;-66
2021/10/06 07:19:35;;;;;;;;;2.00;1.00;;;;;24.47;42.55;101789.25;5075423;28;45465;-67
2021/10/06 07:22:00;;;;;;;;;1.00;1.00;;;;;24.52;42.51;101794.88;5074458;28;45421;-67
2021/10/06 07:24:25;;;;;;;;;3.00;1.00;;;;;24.54;42.28;101784.88;5075704;28;45399;-67
2021/10/06 07:26:51;;;;;;;;;1.33;0.00;;;;;24.57;42.22;101784.53;5076667;28;46109;-67
2021/10/06 07:29:16;;;;;;;;;2.00;0.00;;;;;24.60;42.02;101792.16;5071011;28;46336;-65
2021/10/06 07:31:42;;;;;;;;;1.00;1.00;;;;;24.64;42.36;101787.34;5070695;27;45447;-67
2021/10/06 07:34:07;;;;;;;;;1.00;1.00;;;;;24.67;42.17;101791.47;5068421;28;47234;-67
2021/10/06 07:36:32;;;;;;;;;2.33;0.67;;;;;24.64;41.80;101779.34;5074967;28;45398;-67
2021/10/06 07:38:59;;;;;;;;;0.00;0.00;;;;;24.78;42.05;101790.22;5076914;28;45480;-67
2021/10/06 07:41:25;;;;;;;;;4.00;0.00;;;;;24.87;42.04;101793.69;5073697;28;45418;-67
2021/10/06 07:43:50;;;;;;;;;1.00;1.00;;;;;24.95;41.88;101794.47;5071870;28;45931;-65
2021/10/06 07:46:16;;;;;;;;;0.00;0.00;;;;;24.99;41.94;101794.91;5075111;28;45554;-66
2021/10/06 07:48:42;;;;;;;;;1.00;0.00;;;;;25.00;41.74;101793.09;5075026;28;45443;-67
2021/10/06 07:51:07;;;;;;;;;1.33;0.00;;;;;25.03;41.61;101798.09;5057959;28;45365;-68
2021/10/06 07:53:33;;;;;;;;;0.00;0.00;;;;;25.16;41.55;101800.16;5073948;28;45917;-67
2021/10/06 07:55:58;;;;;;;;;0.75;0.75;;;;;25.24;41.62;101802.75;5074335;28;45234;-67
2021/10/06 07:58:23;;;;;;;;;1.00;1.00;;;;;25.33;41.13;101811.50;5075135;28;45231;-67
2021/10/06 08:00:48;;;;;;;;;1.00;1.00;;;;;25.40;41.25;101807.13;5075113;28;45245;-68
2021/10/06 08:03:14;;;;;;;;;2.33;1.00;;;;;25.45;41.03;101809.22;5076459;28;46307;-67
2021/10/06 08:05:40;;;;;;;;;2.33;1.00;;;;;25.51;41.13;101818.34;5073927;28;45467;-67
2021/10/06 08:08:05;;;;;;;;;1.00;1.00;;;;;25.44;41.13;101802.25;5073002;28;45601;-67
2021/10/06 08:10:31;;;;;;;;;2.00;0.00;;;;;25.48;40.95;101808.03;5057434;28;45532;-67
2021/10/06 08:12:59;;;;;;;;;2.00;0.67;;;;;25.61;41.17;101823.41;5074181;28;46904;-67
2021/10/06 08:15:25;;;;;;;;;0.67;0.67;;;;;25.63;41.24;101830.22;5075376;28;45418;-67
2021/10/06 08:17:50;;;;;;;;;0.33;0.33;;;;;25.68;41.12;101836.84;5075800;28;45414;-66
2021/10/06 08:20:15;;;;;;;;;2.00;0.00;;;;;25.71;40.90;101839.16;5073057;28;45411;-67
2021/10/06 08:22:41;;;;;;;;;1.25;1.25;;;;;25.66;40.93;101828.22;5074061;28;45378;-66
2021/10/06 08:25:06;;;;;;;;;0.00;0.00;;;;;25.74;40.86;101842.31;5072977;28;45379;-67
2021/10/06 08:27:32;;;;;;;;;0.67;0.67;;;;;25.76;40.83;101852.81;5074732;28;45454;-67
2021/10/06 08:29:57;;;;;;;;;1.67;1.67;;;;;25.78;41.04;101855.28;5076509;28;45447;-67
2021/10/06 08:32:22;;;;;;;;;1.33;0.33;;;;;25.79;40.99;101851.63;5073244;28;46001;-68
2021/10/06 08:34:48;;;;;;;;;1.00;1.00;;;;;25.81;40.73;101857.59;5070759;28;45652;-67
2021/10/06 08:37:14;;;;;;;;;1.00;1.00;;;;;25.65;40.75;101831.88;5073450;28;45394;-67
2021/10/06 08:39:39;;;;;;;;;1.00;1.00;;;;;25.82;40.72;101867.22;5074324;28;45384;-67
2021/10/06 08:42:07;;;;;;;;;1.00;1.00;;;;;25.80;40.64;101869.25;5076232;28;46038;-66
2021/10/06 08:44:33;;;;;;;;;0.33;0.33;;;;;25.79;40.92;101863.09;5072942;28;45382;-66
2021/10/06 08:46:59;;;;;;;;;1.00;1.00;;;;;25.79;40.98;101873.75;5071775;28;45483;-67
2021/10/06 08:49:25;;;;;;;;;1.33;1.00;;;;;25.79;40.44;101868.41;5073246;28;45392;-67
2021/10/06 08:51:50;;;;;;;;;1.00;1.00;;;;;25.80;40.66;101875.41;5073431;28;46003;-66
2021/10/06 08:54:17;;;;;;;;;0.00;0.00;;;;;25.81;40.85;101868.25;5057434;28;45349;-66
2021/10/06 08:56:43;;;;;;;;;0.67;0.67;;;;;25.72;40.92;101862.97;5074532;28;45443;-67
2021/10/06 08:59:09;;;;;;;;;1.00;1.00;;;;;25.78;40.67;101873.94;5072451;28;45488;-67
2021/10/06 09:01:42;;;;;;;;;0.67;0.00;;;;;25.76;40.55;101878.63;5054563;28;47344;-67
2021/10/06 09:04:07;;;;;;;;;1.00;1.00;;;;;25.77;40.89;101883.78;5072222;28;47723;-67
2021/10/06 09:06:34;;;;;;;;;1.00;1.00;;;;;25.75;40.98;101896.44;5072266;28;45443;-67
2021/10/06 09:09:24;;;;;;;;;1.00;1.00;;;;;25.65;40.88;101888.69;5075883;28;45372;-67
2021/10/06 09:11:54;;;;;;;;;2.00;0.00;;;;;25.73;41.19;101904.66;5074506;28;46403;-67
2021/10/06 09:14:21;;;;;;;;;1.00;1.00;;;;;25.71;40.85;101903.13;5073703;28;45495;-67
2021/10/06 09:17:03;;;;;;;;;0.00;0.00;;;;;25.66;40.93;101895.66;5073990;28;45183;-67
2021/10/06 09:19:49;;;;;;;;;1.00;1.00;;;;;25.68;41.08;101903.50;5073733;28;45439;-67
2021/10/06 09:22:21;;;;;;;;;0.33;0.33;;;;;25.65;40.79;101901.16;5073365;28;47145;-67
2021/10/06 09:24:58;;;;;;;;;1.67;1.00;;;;;25.63;40.96;101915.50;5056351;28;45588;-68
2021/10/06 09:27:28;;;;;;;;;1.67;0.00;;;;;25.58;41.00;101911.72;5074619;28;45289;-67
2021/10/06 09:29:59;;;;;;;;;2.00;1.00;;;;;25.58;40.92;101907.22;5075482;28;45577;-67
2021/10/06 09:32:40;;;;;;;;;0.67;0.67;;;;;25.59;40.98;101910.72;5073353;28;46360;-67
2021/10/06 09:35:20;;;;;;;;;1.00;1.00;;;;;25.56;40.91;101919.06;5054855;28;45507;-67
2021/10/06 09:37:47;;;;;;;;;1.00;1.00;;;;;25.52;40.95;101919.44;5071963;28;45442;-67
2021/10/06 09:40:15;;;;;;;;;1.67;1.00;;;;;25.49;41.03;101916.28;5072961;28;45637;-67
2021/10/06 09:42:49;;;;;;;;;3.00;1.00;;;;;25.45;40.85;101918.47;5072704;28;47349;-67
2021/10/06 09:45:30;;;;;;;;;0.00;0.00;;;;;25.45;40.95;101926.44;5071430;28;45372;-67
2021/10/06 09:48:04;;;;;;;;;1.00;1.00;;;;;25.40;41.14;101919.00;5073335;28;45399;-67
2021/10/06 09:50:35;;;;;;;;;1.00;1.00;;;;;25.38;41.19;101917.50;5073057;28;45375;-68
2021/10/06 09:53:12;;;;;;;;;1.33;1.33;;;;;25.35;41.14;101921.38;5072466;28;46295;-67
2021/10/06 09:55:38;;;;;;;;;0.00;0.00;;;;;25.22;41.17;101908.63;5073270;28;45407;-67
2021/10/06 09:58:04;;;;;;;;;0.67;0.67;;;;;25.23;41.42;101917.44;5073574;28;45485;-67
2021/10/06 10:00:30;;;;;;;;;1.33;1.33;;;;;25.28;41.09;101933.72;5073237;28;45434;-68
2021/10/06 10:02:56;;;;;;;;;2.00;2.00;;;;;25.27;41.16;101945.38;5086404;27;45992;-67
2021/10/06 10:05:22;;;;;;;;;0.33;0.33;;;;;25.18;40.98;101929.47;5072940;28;45472;-67
2021/10/06 10:07:49;;;;;;;;;1.00;1.00;;;;;25.15;41.32;101929.81;5073137;28;45465;-68
2021/10/06 10:10:15;;;;;;;;;0.67;0.67;;;;;25.25;40.96;101932.25;5072796;28;45597;-66
2021/10/06 10:12:41;;;;;;;;;0.33;0.33;;;;;25.24;41.01;101938.56;5073218;28;47307;-66
2021/10/06 10:15:08;;;;;;;;;3.00;1.00;;;;;25.22;41.13;101945.91;5076099;27;45385;-68
2021/10/06 10:17:33;;;;;;;;;3.25;1.75;;;;;25.10;40.94;101928.69;5078927;27;45735;-68
2021/10/06 10:20:08;;;;;;;;;2.00;1.00;;;;;25.21;41.18;101935.44;5073650;28;45293;-68
2021/10/06 10:22:38;;;;;;;;;2.00;1.00;;;;;25.20;41.33;101939.94;5068240;28;48101;-68
2021/10/06 10:25:27;;;;;;;;;1.00;1.00;;;;;25.20;41.40;101953.25;5077474;27;45491;-68
2021/10/06 10:27:55;;;;;;;;;1.00;1.00;;;;;25.21;41.54;101948.75;5072148;28;45755;-69
2021/10/06 10:30:20;;;;;;;;;2.67;0.00;;;;;25.22;41.18;101953.06;5073427;28;45480;-70
2021/10/06 10:32:46;;;;;;;;;1.00;1.00;;;;;25.15;41.63;101956.44;5073725;27;45317;-68
2021/10/06 10:35:15;;;;;;;;;4.00;2.00;;;;;25.11;41.54;101946.31;5075173;27;45608;-68
2021/10/06 10:37:47;;;;;;;;;0.00;0.00;;;;;25.23;41.60;101954.75;5075325;27;45539;-68
2021/10/06 10:40:31;;;;;;;;;1.00;1.00;;;;;25.23;41.60;101960.91;5076776;27;45592;-68
2021/10/06 10:43:00;;;;;;;;;2.00;0.33;;;;;25.24;41.56;101975.84;5076674;27;46789;-68
2021/10/06 10:45:47;;;;;;;;;2.00;2.00;;;;;25.24;41.71;101970.53;5076298;27;45509;-68
2021/10/06 10:48:15;;;;;;;;;0.67;0.00;;;;;25.21;41.80;101957.59;5057347;28;45329;-68
2021/10/06 10:50:43;;;;;;;;;1.00;1.00;;;;;25.25;41.74;101966.88;5075909;27;45472;-68
2021/10/06 10:53:19;;;;;;;;;1.00;0.00;;;;;25.25;41.96;101972.19;5072648;27;46388;-68
2021/10/06 10:55:52;;;;;;;;;2.00;1.67;;;;;25.25;41.73;101952.72;5073575;27;45549;-68
2021/10/06 10:58:31;;;;;;;;;0.00;0.00;;;;;25.26;42.10;101973.03;5075197;27;45493;-68
2021/10/06 11:00:58;;;;;;;;;0.00;0.00;;;;;25.26;41.76;101975.69;5074397;27;45487;-68
2021/10/06 11:03:24;;;;;;;;;1.33;0.33;;;;;25.26;42.00;101959.72;5074641;28;47213;-68
2021/10/06 11:05:52;;;;;;;;;1.00;0.00;;;;;25.21;41.72;101970.91;5078207;27;45541;-68
2021/10/06 11:08:32;;;;;;;;;1.00;1.00;;;;;25.26;41.98;101962.38;5068515;27;45536;-69
2021/10/06 11:11:09;;;;;;;;;0.33;0.00;;;;;25.26;41.88;101981.88;5075078;27;45515;-68
2021/10/06 11:13:39;;;;;;;;;1.00;1.00;;;;;25.19;41.96;101964.91;5073395;28;46236;-68
2021/10/06 11:16:05;;;;;;;;;2.00;0.67;;;;;25.25;42.23;101984.69;5076255;27;45356;-68
2021/10/06 11:18:51;;;;;;;;;0.25;0.25;;;;;25.23;42.08;101990.19;5076720;27;45348;-68
2021/10/06 11:21:37;;;;;;;;;0.00;0.00;;;;;25.23;42.22;101992.03;5076499;27;45487;-68
2021/10/06 11:24:23;;;;;;;;;0.00;0.00;;;;;25.21;41.91;101997.53;5070615;28;45531;-68